Time;durP1;ratioP1;P1;durP2;ratioP2;P2;SDS_P1;SDS_P2;PMS_P1;PMS_P2;Temp;Humidity;BMP_temperature;BMP_pressure;BME280_temperature;BME280_humidity;BME280_pressure;Samples;Min_cycle;Max_cycle;Signal;HPM_P1;HPM_P2
2021/07/19 00:00:09;;;;;;;12.95;7.13;;;;;;;17.13;80.49;102444.22;5068682;28;20400;-63
2021/07/19 00:02:34;;;;;;;;;;;;;;;17.10;80.83;102447.06;5057774;28;20032;-62
2021/07/19 00:04:59;;;;;;;10.00;5.97;;;;;;;17.13;80.78;102444.22;5072387;28;19927;-64
2021/07/19 00:07:25;;;;;;;13.18;5.85;;;;;;;17.13;80.04;102452.25;5072682;28;20021;-64
2021/07/19 00:09:50;;;;;;;9.13;6.07;;;;;;;17.13;79.98;102449.56;5072488;28;20103;-64
2021/07/19 00:12:16;;;;;;;10.63;6.07;;;;;;;17.11;79.91;102449.66;5071048;28;20043;-64
2021/07/19 00:14:44;;;;;;;14.07;6.45;;;;;;;17.05;80.25;102449.94;5072374;28;20028;-64
2021/07/19 00:17:10;;;;;;;12.48;6.68;;;;;;;17.04;80.10;102453.53;5072431;28;20051;-64
2021/07/19 00:19:36;;;;;;;11.73;5.47;;;;;;;17.03;80.02;102452.69;5072316;28;20024;-63
2021/07/19 00:22:02;;;;;;;10.38;5.95;;;;;;;17.08;79.97;102446.25;5063356;28;20037;-64
2021/07/19 00:24:27;;;;;;;10.95;5.60;;;;;;;17.06;79.21;102451.66;5064313;28;20119;-64
2021/07/19 00:26:52;;;;;;;11.38;6.30;;;;;;;16.97;79.96;102444.94;5072713;28;20024;-64
2021/07/19 00:29:18;;;;;;;9.68;5.82;;;;;;;16.92;80.33;102454.09;5072431;28;20032;-65
2021/07/19 00:31:43;;;;;;;8.63;5.65;;;;;;;16.85;80.66;102451.69;5070915;28;20086;-64
2021/07/19 00:34:08;;;;;;;8.80;5.20;;;;;;;16.81;80.04;102452.75;5071543;28;21730;-64
2021/07/19 00:36:34;;;;;;;9.25;5.68;;;;;;;16.79;80.15;102448.41;5072383;28;20504;-64
2021/07/19 00:39:00;;;;;;;9.10;5.43;;;;;;;16.75;80.49;102457.50;5072616;28;20491;-64
2021/07/19 00:41:25;;;;;;;8.63;5.20;;;;;;;16.71;80.26;102459.47;5072116;28;20028;-64
2021/07/19 00:43:51;;;;;;;8.15;5.30;;;;;;;16.68;79.86;102459.59;5059018;28;20037;-64
2021/07/19 00:46:16;;;;;;;11.27;5.53;;;;;;;16.64;80.67;102458.00;5071209;28;20384;-65
2021/07/19 00:48:43;;;;;;;8.98;5.40;;;;;;;16.63;80.20;102464.28;5072299;28;20025;-64
2021/07/19 00:51:08;;;;;;;12.32;5.93;;;;;;;16.61;80.57;102459.03;5072054;28;20120;-64
2021/07/19 00:53:34;;;;;;;9.50;5.47;;;;;;;16.62;80.10;102463.41;5070363;28;20111;-64
2021/07/19 00:56:00;;;;;;;8.23;5.60;;;;;;;16.59;80.42;102455.53;5071864;28;20036;-64
2021/07/19 00:58:29;;;;;;;7.05;5.18;;;;;;;16.57;79.85;102460.06;5072136;28;20024;-64
2021/07/19 01:00:57;;;;;;;9.63;5.68;;;;;;;16.54;80.09;102460.22;5072001;28;20050;-64
2021/07/19 01:03:24;;;;;;;10.93;5.90;;;;;;;16.51;80.46;102455.03;5072141;28;20035;-64
2021/07/19 01:05:50;;;;;;;10.10;5.97;;;;;;;16.50;80.40;102437.22;5062548;28;20433;-65
2021/07/19 01:08:18;;;;;;;8.77;5.30;;;;;;;16.48;80.11;102449.78;5071960;28;20020;-63
2021/07/19 01:10:44;;;;;;;9.15;5.45;;;;;;;16.45;80.49;102464.16;5072008;28;20032;-64
2021/07/19 01:13:10;;;;;;;11.18;6.22;;;;;;;16.43;80.57;102452.66;5075959;28;20092;-64
2021/07/19 01:15:37;;;;;;;10.88;5.55;;;;;;;16.46;80.47;102443.63;5074089;28;20069;-61
2021/07/19 01:18:05;;;;;;;10.13;5.45;;;;;;;16.49;80.16;102447.03;5075400;28;20564;-64
2021/07/19 01:20:42;;;;;;;11.05;5.28;;;;;;;16.48;80.17;102442.66;5075349;28;20032;-64
2021/07/19 01:23:22;;;;;;;10.50;5.15;;;;;;;16.44;80.26;102443.69;5075509;28;20025;-65
2021/07/19 01:26:01;;;;;;;8.45;5.47;;;;;;;16.42;80.56;102442.03;5067883;28;20457;-63
2021/07/19 01:28:36;;;;;;;11.15;5.55;;;;;;;16.41;80.21;102445.63;5075152;28;20033;-64
2021/07/19 01:31:07;;;;;;;11.07;5.13;;;;;;;16.41;80.58;102449.19;5075268;28;20024;-64
2021/07/19 01:33:34;;;;;;;11.23;5.40;;;;;;;16.35;81.06;102452.13;5075374;28;20127;-64
2021/07/19 01:36:01;;;;;;;10.25;5.22;;;;;;;16.35;80.78;102444.97;5070193;28;20032;-64
2021/07/19 01:38:28;;;;;;;7.97;4.70;;;;;;;16.34;80.37;102440.59;5055289;28;20511;-64
2021/07/19 01:40:56;;;;;;;9.68;4.85;;;;;;;16.31;80.52;102448.72;5069906;28;20086;-63
2021/07/19 01:43:23;;;;;;;7.78;4.80;;;;;;;16.29;80.33;102445.25;5068783;28;20025;-64
2021/07/19 01:45:49;;;;;;;8.23;4.43;;;;;;;16.28;80.51;102435.50;5055133;28;20369;-63
2021/07/19 01:48:15;;;;;;;8.70;5.15;;;;;;;16.26;80.61;102434.69;5055094;28;20480;-64
2021/07/19 01:50:41;;;;;;;7.68;4.97;;;;;;;16.18;80.95;102436.84;5065053;28;20025;-64
2021/07/19 01:53:08;;;;;;;8.23;4.63;;;;;;;16.14;80.87;102438.75;5074466;28;20497;-63
2021/07/19 01:55:34;;;;;;;11.00;5.60;;;;;;;16.12;80.96;102445.09;5073891;28;20032;-61
2021/07/19 01:58:00;;;;;;;7.35;4.75;;;;;;;16.09;81.56;102443.44;5074577;28;20028;-64
2021/07/19 02:00:26;;;;;;;9.07;4.80;;;;;;;16.04;81.83;102440.94;5075138;28;20033;-62
2021/07/19 02:02:51;;;;;;;9.30;5.15;;;;;;;16.00;81.68;102435.81;5074763;28;20029;-64
2021/07/19 02:05:19;;;;;;;9.05;4.72;;;;;;;16.01;82.21;102429.50;5073376;28;20161;-63
2021/07/19 02:07:50;;;;;;;8.05;5.00;;;;;;;16.02;81.33;102424.13;5074052;28;20379;-63
2021/07/19 02:10:16;;;;;;;9.07;4.50;;;;;;;16.00;81.43;102434.00;5074728;28;20468;-62
2021/07/19 02:12:43;;;;;;;9.13;4.82;;;;;;;16.01;81.46;102440.19;5074813;28;20074;-64
2021/07/19 02:15:17;;;;;;;10.43;5.43;;;;;;;15.97;81.57;102423.47;5073222;28;20032;-64
2021/07/19 02:17:48;;;;;;;9.85;4.55;;;;;;;15.95;81.48;102435.16;5071794;28;20029;-64
2021/07/19 02:20:15;;;;;;;9.23;5.07;;;;;;;15.93;82.07;102429.84;5074689;28;20024;-64
2021/07/19 02:22:43;;;;;;;8.95;5.18;;;;;;;15.92;82.02;102430.81;5073741;28;20468;-64
2021/07/19 02:25:10;;;;;;;10.52;4.63;;;;;;;15.89;82.05;102433.59;5073939;28;20034;-63
2021/07/19 02:27:42;;;;;;;9.02;4.90;;;;;;;15.85;82.29;102434.66;5056388;28;20021;-63
2021/07/19 02:30:09;;;;;;;8.57;5.20;;;;;;;15.83;82.76;102441.84;5073998;28;20392;-64
2021/07/19 02:32:42;;;;;;;8.82;5.18;;;;;;;15.80;82.50;102437.47;5073826;28;20032;-63
2021/07/19 02:35:09;;;;;;;10.77;4.97;;;;;;;15.80;82.68;102442.81;5074562;28;20032;-64
2021/07/19 02:37:37;;;;;;;7.93;5.03;;;;;;;15.79;82.62;102442.88;5059134;28;20039;-63
2021/07/19 02:40:05;;;;;;;8.85;4.93;;;;;;;15.75;82.66;102438.59;5070965;28;20033;-64
2021/07/19 02:42:31;;;;;;;7.38;4.57;;;;;;;15.72;82.51;102440.47;5074502;28;20019;-64
2021/07/19 02:44:56;;;;;;;11.95;5.40;;;;;;;15.71;82.79;102440.53;5073973;28;20079;-64
2021/07/19 02:47:26;;;;;;;9.68;5.38;;;;;;;15.68;82.55;102440.66;5072368;28;20028;-64
2021/07/19 02:49:51;;;;;;;8.50;5.03;;;;;;;15.65;82.68;102447.00;5072619;28;20528;-65
2021/07/19 02:52:17;;;;;;;11.15;5.45;;;;;;;15.65;82.94;102447.00;5073950;28;20071;-63
2021/07/19 02:54:43;;;;;;;9.18;5.32;;;;;;;15.62;82.97;102443.59;5073712;28;20074;-64
2021/07/19 02:57:10;;;;;;;11.73;5.38;;;;;;;15.59;82.88;102431.22;5072199;28;20526;-63
2021/07/19 02:59:35;;;;;;;11.93;5.45;;;;;;;15.58;82.98;102432.16;5073258;28;20021;-63
2021/07/19 03:02:02;;;;;;;11.65;5.57;;;;;;;15.56;83.20;102431.31;5073368;28;20503;-64
2021/07/19 03:04:27;;;;;;;7.78;4.60;;;;;;;15.55;82.66;102432.28;5073623;28;20115;-62
2021/07/19 03:06:58;;;;;;;11.05;5.65;;;;;;;15.56;82.76;102434.88;5073897;28;20518;-65
2021/07/19 03:09:26;;;;;;;16.00;5.78;;;;;;;15.55;82.94;102437.63;5071466;28;20056;-65
2021/07/19 03:11:52;;;;;;;8.82;5.53;;;;;;;15.55;83.25;102441.16;5073285;28;20033;-63
2021/07/19 03:14:21;;;;;;;11.30;5.40;;;;;;;15.54;82.82;102446.56;5073376;28;20052;-63
2021/07/19 03:16:49;;;;;;;12.38;5.40;;;;;;;15.53;82.60;102453.69;5073119;28;20051;-63
2021/07/19 03:19:17;;;;;;;9.55;5.63;;;;;;;15.52;82.72;102453.75;5065265;28;20025;-62
2021/07/19 03:21:44;;;;;;;10.73;5.57;;;;;;;15.50;82.78;102452.94;5072573;28;20032;-65
2021/07/19 03:24:13;;;;;;;8.95;5.25;;;;;;;15.49;82.86;102453.88;5073038;28;20035;-65
2021/07/19 03:26:41;;;;;;;12.52;5.95;;;;;;;15.46;82.74;102445.97;5072722;28;20032;-63
2021/07/19 03:29:09;;;;;;;10.23;5.50;;;;;;;15.44;82.93;102438.03;5071377;28;20024;-64
2021/07/19 03:31:35;;;;;;;12.45;5.53;;;;;;;15.46;82.85;102451.31;5053632;28;20052;-63
2021/07/19 03:34:01;;;;;;;11.35;5.40;;;;;;;15.52;82.87;102449.25;5052453;28;20036;-64
2021/07/19 03:36:31;;;;;;;10.48;5.47;;;;;;;15.60;82.74;102445.44;5066341;28;20032;-63
2021/07/19 03:38:57;;;;;;;9.90;5.43;;;;;;;15.69;82.03;102448.59;5073033;28;20024;-64
2021/07/19 03:41:23;;;;;;;12.25;5.43;;;;;;;15.76;82.13;102453.69;5071218;28;20126;-64
2021/07/19 03:43:50;;;;;;;11.10;5.43;;;;;;;15.82;82.05;102450.78;5072864;28;20479;-64
2021/07/19 03:46:20;;;;;;;10.32;5.45;;;;;;;15.86;81.87;102460.44;5072457;28;20029;-62
2021/07/19 03:48:45;;;;;;;12.30;4.97;;;;;;;15.93;81.06;102463.72;5072994;28;20021;-63
2021/07/19 03:51:11;;;;;;;11.30;5.70;;;;;;;15.96;81.48;102455.56;5064423;28;20028;-64
2021/07/19 03:53:37;;;;;;;11.48;5.50;;;;;;;15.98;81.56;102453.72;5052900;28;20104;-64
2021/07/19 03:56:03;;;;;;;9.07;5.50;;;;;;;15.98;81.56;102456.38;5054173;28;20111;-62
2021/07/19 03:58:33;;;;;;;9.38;5.70;;;;;;;15.97;81.34;102454.63;5072538;28;20021;-63
2021/07/19 04:00:59;;;;;;;10.05;5.90;;;;;;;15.97;81.76;102447.50;5070913;28;20024;-64
2021/07/19 04:03:27;;;;;;;11.18;5.18;;;;;;;16.05;81.39;102447.19;5072920;28;20036;-63
2021/07/19 04:06:00;;;;;;;11.20;6.00;;;;;;;16.11;80.78;102438.88;5072761;28;20029;-64
2021/07/19 04:08:29;;;;;;;10.25;5.47;;;;;;;16.16;80.67;102434.22;5072194;28;20035;-63
2021/07/19 04:10:55;;;;;;;9.02;5.40;;;;;;;16.19;80.65;102443.91;5072083;28;20507;-64
2021/07/19 04:13:21;;;;;;;11.32;6.00;;;;;;;16.24;80.73;102446.38;5070934;28;20017;-62
2021/07/19 04:15:49;;;;;;;10.15;5.40;;;;;;;16.30;80.39;102455.00;5072436;28;20025;-63
2021/07/19 04:18:15;;;;;;;11.30;5.50;;;;;;;16.33;80.31;102451.31;5072061;28;20044;-64
2021/07/19 04:20:41;;;;;;;13.15;5.90;;;;;;;16.35;80.43;102444.97;5072539;28;20046;-62
2021/07/19 04:23:14;;;;;;;12.63;5.50;;;;;;;16.40;80.23;102439.44;5063808;28;20021;-62
2021/07/19 04:25:41;;;;;;;11.85;5.50;;;;;;;16.45;80.01;102444.59;5052118;28;20055;-63
2021/07/19 04:28:06;;;;;;;11.40;5.88;;;;;;;16.50;79.67;102438.09;5062358;28;20029;-63
2021/07/19 04:30:33;;;;;;;11.77;5.50;;;;;;;16.55;79.46;102429.88;5072566;28;20037;-64
2021/07/19 04:32:59;;;;;;;8.93;5.47;;;;;;;16.57;78.85;102436.00;5070760;28;20025;-64
2021/07/19 04:35:24;;;;;;;12.35;5.05;;;;;;;16.62;78.94;102441.16;5072530;28;20029;-65
2021/07/19 04:37:52;;;;;;;10.60;5.70;;;;;;;16.68;78.79;102441.75;5071739;28;20036;-63
2021/07/19 04:40:18;;;;;;;12.13;4.88;;;;;;;16.74;78.28;102437.94;5072198;28;20017;-64
2021/07/19 04:42:43;;;;;;;12.15;5.68;;;;;;;16.74;78.70;102437.03;5071771;28;20025;-64
2021/07/19 04:45:10;;;;;;;9.65;5.68;;;;;;;16.70;78.57;102441.66;5063136;28;20099;-62
2021/07/19 04:47:35;;;;;;;10.63;5.45;;;;;;;16.79;79.12;102441.28;5065365;28;20081;-63
2021/07/19 04:50:01;;;;;;;12.82;6.00;;;;;;;16.91;78.35;102442.53;5065048;28;20465;-63
2021/07/19 04:52:27;;;;;;;10.95;5.30;;;;;;;17.00;78.54;102435.91;5056230;28;20362;-62
2021/07/19 04:54:54;;;;;;;11.52;5.38;;;;;;;17.03;77.94;102441.97;5057322;28;20094;-64
2021/07/19 04:57:22;;;;;;;11.98;5.80;;;;;;;17.03;77.79;102441.09;5055779;28;20417;-64
2021/07/19 04:59:53;;;;;;;11.93;5.55;;;;;;;17.04;78.12;102442.84;5063249;28;20047;-63
2021/07/19 05:02:21;;;;;;;13.68;5.90;;;;;;;17.09;77.84;102439.94;5075844;28;20033;-62
2021/07/19 05:04:50;;;;;;;12.32;4.85;;;;;;;17.17;77.69;102437.78;5074484;28;20056;-62
2021/07/19 05:07:18;;;;;;;11.35;5.40;;;;;;;17.25;77.39;102440.97;5075889;28;20043;-63
2021/07/19 05:09:46;;;;;;;10.73;5.60;;;;;;;17.37;76.86;102447.53;5074977;28;20499;-63
2021/07/19 05:12:16;;;;;;;12.15;5.60;;;;;;;17.53;76.10;102442.28;5075297;28;20032;-63
2021/07/19 05:14:41;;;;;;;11.10;5.60;;;;;;;17.61;75.43;102444.59;5072562;28;20036;-64
2021/07/19 05:17:12;;;;;;;8.93;5.68;;;;;;;17.66;75.48;102440.75;5066467;28;20045;-63
2021/07/19 05:19:39;;;;;;;10.25;5.13;;;;;;;17.66;75.40;102445.22;5060495;28;20029;-64
2021/07/19 05:22:11;;;;;;;9.02;5.50;;;;;;;17.50;75.00;102455.84;5074584;28;20040;-63
2021/07/19 05:24:37;;;;;;;11.38;5.40;;;;;;;17.47;75.81;102448.81;5075174;28;20025;-63
2021/07/19 05:27:05;;;;;;;11.30;5.20;;;;;;;17.50;75.47;102448.66;5073414;28;20027;-62
2021/07/19 05:29:30;;;;;;;12.35;5.68;;;;;;;17.61;75.23;102447.28;5075114;28;20032;-63
2021/07/19 05:31:55;;;;;;;9.68;5.50;;;;;;;17.68;75.02;102446.03;5074537;28;20039;-63
2021/07/19 05:34:21;;;;;;;11.70;5.80;;;;;;;17.72;74.01;102441.41;5074255;28;20115;-64
2021/07/19 05:36:47;;;;;;;13.40;5.97;;;;;;;17.53;74.97;102442.28;5074844;28;20116;-64
2021/07/19 05:39:12;;;;;;;16.85;5.60;;;;;;;17.41;76.05;102446.44;5075354;28;20479;-64
2021/07/19 05:41:38;;;;;;;15.75;5.75;;;;;;;17.35;76.06;102444.94;5072147;28;20029;-62
2021/07/19 05:44:03;;;;;;;14.57;5.68;;;;;;;17.36;76.05;102443.13;5074386;28;20032;-62
2021/07/19 05:46:29;;;;;;;9.60;5.63;;;;;;;17.28;76.84;102445.31;5075633;28;20024;-63
2021/07/19 05:48:54;;;;;;;20.58;6.53;;;;;;;17.20;77.07;102443.84;5065442;28;20537;-63
2021/07/19 05:51:19;;;;;;;13.10;6.25;;;;;;;17.09;77.13;102447.97;5063530;28;20032;-64
2021/07/19 05:53:44;;;;;;;19.15;6.30;;;;;;;17.03;77.97;102439.31;5071326;28;20551;-65
2021/07/19 05:56:10;;;;;;;13.38;6.20;;;;;;;17.03;77.73;102441.97;5074885;28;20033;-64
2021/07/19 05:58:35;;;;;;;15.13;6.45;;;;;;;17.06;78.24;102440.06;5073147;28;20031;-63
2021/07/19 06:01:01;;;;;;;15.48;5.85;;;;;;;17.16;77.92;102441.38;5074963;28;20119;-61
2021/07/19 06:03:26;;;;;;;11.55;6.00;;;;;;;17.28;77.27;102442.63;5070237;28;20050;-62
2021/07/19 06:05:52;;;;;;;10.13;5.68;;;;;;;17.45;77.06;102436.44;5054909;28;20090;-61
2021/07/19 06:08:17;;;;;;;12.02;6.10;;;;;;;17.61;76.72;102436.56;5060432;28;20392;-58
2021/07/19 06:10:42;;;;;;;11.70;5.80;;;;;;;17.72;76.55;102436.91;5073954;28;20031;-63
2021/07/19 06:13:09;;;;;;;12.18;6.07;;;;;;;17.90;75.88;102442.28;5062034;28;20496;-61
2021/07/19 06:15:35;;;;;;;12.65;5.75;;;;;;;17.89;74.86;102441.44;5063974;28;20028;-61
2021/07/19 06:18:00;;;;;;;10.05;5.70;;;;;;;17.94;74.63;102449.25;5074467;28;20515;-62
2021/07/19 06:20:28;;;;;;;11.90;6.53;;;;;;;17.85;74.85;102450.53;5069983;28;20029;-62
2021/07/19 06:23:00;;;;;;;12.95;7.10;;;;;;;17.75;74.97;102450.16;5060614;28;20163;-63
2021/07/19 06:25:26;;;;;;;13.93;6.65;;;;;;;17.67;75.52;102444.28;5055918;28;20090;-62
2021/07/19 06:27:52;;;;;;;11.50;6.53;;;;;;;17.71;75.52;102453.94;5036217;28;20065;-64
2021/07/19 06:30:17;;;;;;;12.07;6.30;;;;;;;17.75;75.23;102450.16;5054532;28;20083;-61
2021/07/19 06:32:42;;;;;;;11.88;6.20;;;;;;;17.71;75.43;102455.72;5054251;28;20024;-63
2021/07/19 06:35:09;;;;;;;14.98;6.40;;;;;;;17.74;75.39;102459.13;5060104;28;20384;-64
2021/07/19 06:37:34;;;;;;;15.02;6.70;;;;;;;17.76;75.66;102456.38;5064039;28;20025;-61
2021/07/19 06:40:00;;;;;;;16.15;7.00;;;;;;;17.78;75.45;102457.19;5054327;28;20082;-64
2021/07/19 06:42:25;;;;;;;13.93;6.72;;;;;;;17.88;75.47;102460.25;5062570;28;20024;-62
2021/07/19 06:44:54;;;;;;;13.63;6.53;;;;;;;18.08;74.37;102457.50;5073495;28;20415;-63
2021/07/19 06:47:21;;;;;;;13.50;6.38;;;;;;;18.11;73.30;102457.31;5073665;28;20021;-64
2021/07/19 06:49:47;;;;;;;12.20;5.80;;;;;;;18.12;72.98;102463.53;5073406;28;20051;-63
2021/07/19 06:52:12;;;;;;;12.60;6.35;;;;;;;18.16;73.69;102462.47;5061857;28;20469;-62
2021/07/19 06:54:38;;;;;;;13.40;5.60;;;;;;;18.21;73.09;102468.44;5064480;28;20029;-61
2021/07/19 06:57:03;;;;;;;11.38;6.22;;;;;;;18.17;73.00;102472.22;5067819;28;20119;-62
2021/07/19 06:59:29;;;;;;;10.13;5.30;;;;;;;18.37;72.50;102475.69;5059568;28;20025;-62
2021/07/19 07:01:54;;;;;;;13.98;7.07;;;;;;;18.46;71.96;102477.91;5069196;28;20397;-63
2021/07/19 07:04:20;;;;;;;12.20;6.60;;;;;;;18.46;71.93;102478.75;5055025;28;20029;-63
2021/07/19 07:06:45;;;;;;;11.68;6.20;;;;;;;18.46;71.71;102483.25;5069961;28;20025;-62
2021/07/19 07:09:10;;;;;;;13.68;6.18;;;;;;;18.55;71.01;102482.78;5054822;28;20021;-61
2021/07/19 07:11:36;;;;;;;14.18;6.65;;;;;;;18.53;70.77;102463.22;5052952;28;20029;-62
2021/07/19 07:14:02;;;;;;;12.07;6.60;;;;;;;18.48;71.07;102470.66;5068773;28;20096;-62
2021/07/19 07:16:27;;;;;;;17.88;7.47;;;;;;;18.46;71.46;102467.16;5061002;28;20025;-62
2021/07/19 07:18:53;;;;;;;13.85;7.00;;;;;;;18.44;71.67;102472.63;5066725;28;20048;-62
2021/07/19 07:21:18;;;;;;;11.00;6.47;;;;;;;18.45;71.23;102469.00;5066519;28;20555;-63
2021/07/19 07:23:44;;;;;;;11.02;6.15;;;;;;;18.51;71.48;102454.38;5072094;28;20036;-64
2021/07/19 07:26:09;;;;;;;11.63;6.63;;;;;;;18.72;69.49;102463.13;5070279;28;20024;-61
2021/07/19 07:28:35;;;;;;;12.00;6.63;;;;;;;18.80;69.42;102460.03;5068678;28;20377;-62
2021/07/19 07:31:00;;;;;;;9.77;6.40;;;;;;;18.90;69.06;102455.03;5063235;28;20120;-62
2021/07/19 07:33:25;;;;;;;11.05;6.10;;;;;;;19.17;68.45;102458.03;5065268;28;20159;-62
2021/07/19 07:35:51;;;;;;;12.18;6.38;;;;;;;19.24;66.96;102458.56;5060621;28;20483;-61
2021/07/19 07:38:17;;;;;;;11.60;5.95;;;;;;;19.52;66.67;102455.16;5061286;28;20388;-62
2021/07/19 07:40:43;;;;;;;11.98;5.55;;;;;;;19.84;65.95;102460.53;5055570;28;20041;-61
2021/07/19 07:43:08;;;;;;;9.55;5.50;;;;;;;20.09;64.27;102465.34;5062338;28;20124;-60
2021/07/19 07:45:34;;;;;;;11.90;5.65;;;;;;;20.09;64.41;102469.81;5072163;28;20039;-60
2021/07/19 07:47:59;;;;;;;10.15;5.47;;;;;;;20.25;62.93;102465.25;5068632;28;20541;-60
2021/07/19 07:50:25;;;;;;;11.80;5.10;;;;;;;20.42;61.92;102472.34;5071173;28;20045;-62
2021/07/19 07:52:50;;;;;;;11.60;5.43;;;;;;;20.57;61.13;102450.81;5064528;28;20028;-60
2021/07/19 07:55:15;;;;;;;12.55;5.15;;;;;;;20.86;60.04;102461.66;5052534;28;20451;-61
2021/07/19 07:57:41;;;;;;;10.05;5.75;;;;;;;21.01;58.77;102463.38;5061070;28;20024;-61
2021/07/19 08:00:17;;;;;;;8.80;4.97;;;;;;;21.17;58.33;102465.06;5063092;28;20032;-60
2021/07/19 08:02:44;;;;;;;9.63;4.90;;;;;;;21.31;58.22;102472.28;5066122;28;20028;-61
2021/07/19 08:05:10;;;;;;;10.60;4.63;;;;;;;21.57;56.10;102468.78;5060735;28;20053;-62
2021/07/19 08:07:36;;;;;;;9.18;4.55;;;;;;;22.06;55.86;102456.53;5063481;28;20109;-61
2021/07/19 08:10:03;;;;;;;10.13;4.10;;;;;;;22.23;54.30;102466.16;5072064;28;20108;-61
2021/07/19 08:12:28;;;;;;;7.68;4.35;;;;;;;22.11;54.41;102464.31;5067150;28;20116;-61
2021/07/19 08:14:54;;;;;;;8.52;4.20;;;;;;;21.95;54.29;102461.78;5059275;28;20470;-63
2021/07/19 08:17:19;;;;;;;13.35;4.80;;;;;;;21.93;55.61;102461.88;5064004;28;20093;-62
2021/07/19 08:19:45;;;;;;;6.03;4.03;;;;;;;21.81;54.12;102468.09;5056712;28;20041;-63
2021/07/19 08:22:13;;;;;;;6.13;3.75;;;;;;;21.74;54.34;102470.34;5064187;28;20032;-61
2021/07/19 08:24:40;;;;;;;6.35;3.60;;;;;;;21.73;53.93;102470.44;5065383;28;20020;-62
2021/07/19 08:27:05;;;;;;;6.20;3.80;;;;;;;21.70;54.87;102463.44;5058931;28;20078;-61
2021/07/19 08:29:30;;;;;;;7.45;4.10;;;;;;;21.81;54.41;102464.53;5068244;28;20017;-62
2021/07/19 08:31:55;;;;;;;7.97;3.88;;;;;;;21.87;54.84;102470.38;5071990;28;20123;-61
2021/07/19 08:34:21;;;;;;;7.38;4.20;;;;;;;21.95;54.29;102469.00;5070796;28;20024;-62
2021/07/19 08:36:49;;;;;;;10.25;4.00;;;;;;;21.89;54.64;102460.38;5064384;28;20021;-60
2021/07/19 08:39:14;;;;;;;11.00;4.45;;;;;;;22.01;54.64;102464.06;5070422;28;20064;-62
2021/07/19 08:41:39;;;;;;;9.15;4.40;;;;;;;22.31;53.71;102453.97;5072352;28;20033;-63
2021/07/19 08:44:07;;;;;;;10.38;4.85;;;;;;;22.32;54.85;102461.94;5069263;28;20440;-61
2021/07/19 08:46:35;;;;;;;8.15;4.43;;;;;;;22.33;55.28;102460.09;5056902;28;20052;-63
2021/07/19 08:49:01;;;;;;;9.13;4.38;;;;;;;22.68;54.08;102459.50;5062014;28;20486;-63
2021/07/19 08:51:27;;;;;;;9.68;4.47;;;;;;;22.81;53.43;102454.09;5052951;28;20108;-63
2021/07/19 08:53:53;;;;;;;10.13;4.93;;;;;;;22.68;54.63;102459.50;5052115;28;20578;-63
2021/07/19 08:56:18;;;;;;;10.52;5.20;;;;;;;22.75;54.27;102463.53;5052002;28;20107;-62
2021/07/19 08:58:45;;;;;;;7.90;4.25;;;;;;;22.98;54.18;102458.28;5053308;28;20521;-62
2021/07/19 09:01:12;;;;;;;12.77;5.03;;;;;;;23.54;53.17;102460.53;5064624;28;20434;-62
2021/07/19 09:03:37;;;;;;;10.63;4.93;;;;;;;24.08;49.53;102464.63;5071548;28;20036;-63
2021/07/19 09:06:03;;;;;;;9.63;5.15;;;;;;;24.73;48.84;102459.59;5059936;28;20040;-62
2021/07/19 09:08:28;;;;;;;7.72;4.88;;;;;;;25.32;46.64;102455.72;5071598;28;20028;-62
2021/07/19 09:10:54;;;;;;;9.35;5.10;;;;;;;25.58;47.14;102454.59;5070024;28;20033;-63
2021/07/19 09:13:21;;;;;;;7.82;4.90;;;;;;;26.07;44.77;102455.88;5071183;28;20028;-62
2021/07/19 09:15:50;;;;;;;8.57;4.10;;;;;;;27.23;43.43;102459.31;5071844;28;20040;-62
2021/07/19 09:18:21;;;;;;;7.03;4.28;;;;;;;27.86;41.95;102457.28;5067367;28;20045;-62
2021/07/19 09:20:47;;;;;;;11.15;5.00;;;;;;;27.69;41.94;102448.81;5056182;28;20029;-62
2021/07/19 09:23:12;;;;;;;9.15;5.03;;;;;;;26.90;42.92;102444.22;5047453;28;20480;-62
2021/07/19 09:25:38;;;;;;;13.13;5.50;;;;;;;25.92;46.89;102451.72;5061100;28;20020;-62
2021/07/19 09:28:05;;;;;;;10.80;5.75;;;;;;;25.37;46.96;102455.38;5056136;28;20025;-62
2021/07/19 09:30:32;;;;;;;8.60;5.22;;;;;;;24.58;48.32;102453.53;5062286;28;20061;-62
2021/07/19 09:33:07;;;;;;;9.23;5.40;;;;;;;23.89;50.35;102447.06;5068966;28;20077;-62
2021/07/19 09:35:34;;;;;;;12.75;5.80;;;;;;;24.07;50.34;102443.06;5067812;28;20032;-62
2021/07/19 09:38:11;;;;;;;11.57;5.90;;;;;;;24.20;49.76;102444.72;5071486;28;20024;-62
2021/07/19 09:40:40;;;;;;;11.32;5.55;;;;;;;24.34;49.78;102435.53;5060174;28;20028;-61
2021/07/19 09:43:16;;;;;;;8.52;5.32;;;;;;;24.32;49.95;102433.91;5069030;28;20514;-61
2021/07/19 09:45:42;;;;;;;8.90;5.60;;;;;;;24.53;48.59;102442.19;5062796;28;20380;-62
2021/07/19 09:48:09;;;;;;;8.98;5.60;;;;;;;24.43;49.40;102446.63;5073410;28;20024;-61
2021/07/19 09:51:00;;;;;;;9.65;5.47;;;;;;;24.46;49.82;102436.38;5066664;28;20086;-61
2021/07/19 09:53:40;;;;;;;8.70;5.40;;;;;;;24.36;50.15;102444.41;5063860;28;20064;-62
2021/07/19 09:56:15;;;;;;;12.95;5.15;;;;;;;24.11;49.68;102434.59;5072602;28;20032;-61
2021/07/19 09:58:42;;;;;;;10.90;5.70;;;;;;;23.55;52.50;102436.06;5055763;28;20094;-62
2021/07/19 10:01:07;;;;;;;8.20;5.10;;;;;;;23.31;52.54;102437.91;5054627;28;20036;-62
2021/07/19 10:03:33;;;;;;;9.82;5.45;;;;;;;23.13;53.33;102438.25;5055300;28;20082;-61
2021/07/19 10:06:06;;;;;;;10.57;5.78;;;;;;;22.91;53.78;102431.72;5063821;28;20020;-62
2021/07/19 10:08:32;;;;;;;9.98;5.25;;;;;;;23.05;53.13;102432.56;5062007;28;20074;-62
2021/07/19 10:10:58;;;;;;;11.90;5.80;;;;;;;23.51;52.13;102426.47;5061357;28;20103;-63
2021/07/19 10:13:34;;;;;;;10.70;5.28;;;;;;;24.73;48.94;102424.38;5063328;28;20032;-62
2021/07/19 10:16:02;;;;;;;10.48;5.10;;;;;;;25.40;46.27;102424.41;5071294;28;20012;-62
2021/07/19 10:18:30;;;;;;;8.90;5.38;;;;;;;25.46;44.30;102422.09;5066312;28;20079;-61
2021/07/19 10:20:56;;;;;;;9.02;5.50;;;;;;;26.38;44.29;102412.47;5063003;28;20029;-62
2021/07/19 10:23:22;;;;;;;10.70;5.10;;;;;;;27.55;41.09;102403.84;5058923;28;20036;-62
2021/07/19 10:25:47;;;;;;;8.93;5.40;;;;;;;27.47;39.73;102420.88;5065929;28;20104;-62
2021/07/19 10:28:14;;;;;;;11.23;5.80;;;;;;;27.19;40.16;102408.94;5068616;28;20070;-62
2021/07/19 10:30:40;;;;;;;9.30;5.85;;;;;;;26.38;42.55;102417.06;5072184;28;20532;-63
2021/07/19 10:33:05;;;;;;;12.02;5.97;;;;;;;26.74;41.19;102410.25;5072133;28;20123;-61
2021/07/19 10:35:32;;;;;;;9.57;5.30;;;;;;;26.98;42.54;102411.75;5068190;28;20063;-64
2021/07/19 10:38:04;;;;;;;11.80;5.82;;;;;;;27.82;39.92;102404.13;5054244;28;20039;-62
2021/07/19 10:40:33;;;;;;;9.68;5.13;;;;;;;28.43;38.53;102405.59;5054441;28;20025;-64
2021/07/19 10:43:14;;;;;;;10.40;5.70;;;;;;;28.54;39.09;102404.53;5057721;28;20052;-62
2021/07/19 10:45:42;;;;;;;8.15;5.40;;;;;;;28.49;38.06;102404.13;5069593;28;20036;-64
2021/07/19 10:48:08;;;;;;;11.38;5.85;;;;;;;28.06;39.31;102404.53;5069759;28;20507;-62
2021/07/19 10:50:39;;;;;;;8.68;5.15;;;;;;;27.54;41.01;102413.00;5058392;28;20036;-61
2021/07/19 10:53:16;;;;;;;10.98;6.68;;;;;;;27.27;41.78;102410.94;5072035;28;20047;-61
2021/07/19 10:55:41;;;;;;;14.68;8.43;;;;;;;26.24;42.10;102405.56;5068925;28;20353;-61
2021/07/19 10:58:13;;;;;;;10.05;5.60;;;;;;;25.88;42.11;102410.41;5070028;28;20048;-61
2021/07/19 11:00:47;;;;;;;8.55;5.43;;;;;;;26.17;43.61;102398.94;5065136;28;20032;-62
2021/07/19 11:03:14;;;;;;;10.13;5.85;;;;;;;27.42;40.54;102398.69;5053520;28;20025;-61
2021/07/19 11:05:42;;;;;;;9.95;5.72;;;;;;;27.38;41.32;102389.06;5061601;28;20025;-61
2021/07/19 11:08:20;;;;;;;9.88;5.72;;;;;;;28.25;40.04;102394.59;5061579;28;20029;-62
2021/07/19 11:10:47;;;;;;;7.40;5.32;;;;;;;28.84;35.87;102392.53;5053880;28;20174;-61
2021/07/19 11:13:33;;;;;;;9.63;6.00;;;;;;;28.00;37.06;102396.06;5054668;28;20092;-62
2021/07/19 11:16:00;;;;;;;9.57;5.68;;;;;;;28.07;38.27;102383.59;5072939;28;20016;-60
2021/07/19 11:18:29;;;;;;;10.32;5.55;;;;;;;27.91;36.75;102376.88;5065159;28;20044;-61